createdAt,value
2022-09-27T00:00:44.626Z,50.866901
2022-09-27T00:01:44.703Z,50.866924
2022-09-27T00:02:44.678Z,50.866909
2022-09-27T00:03:44.609Z,50.866913
2022-09-27T00:04:44.611Z,50.866913
2022-09-27T00:05:44.584Z,50.866913
2022-09-27T00:06:44.581Z,50.866913
2022-09-27T00:07:44.565Z,50.866848
2022-09-27T00:08:44.566Z,50.866825
2022-09-27T00:09:46.496Z,50.866764
2022-09-27T00:10:44.551Z,50.866737
2022-09-27T00:11:44.545Z,50.866714
2022-09-27T00:12:44.547Z,50.866703
2022-09-27T00:13:44.522Z,50.866707
2022-09-27T00:14:44.524Z,50.866711
2022-09-27T00:15:44.536Z,50.866730
2022-09-27T00:16:44.498Z,50.866707
2022-09-27T00:17:45.422Z,50.866714
2022-09-27T00:18:44.481Z,50.866737
2022-09-27T00:19:44.484Z,50.866745
2022-09-27T00:20:44.483Z,50.866730
2022-09-27T00:21:44.462Z,50.866714
2022-09-27T00:22:44.455Z,50.866726
2022-09-27T00:23:44.447Z,50.866726
2022-09-27T00:24:44.450Z,50.866730
2022-09-27T00:25:44.428Z,50.866737
2022-09-27T00:26:44.428Z,50.866726
2022-09-27T00:27:44.419Z,50.866753
2022-09-27T00:28:44.407Z,50.866783
2022-09-27T00:31:57.082Z,50.866695
2022-09-27T00:32:57.061Z,50.866737
2022-09-27T00:33:57.061Z,50.866734
2022-09-27T00:34:57.048Z,50.866787
2022-09-27T00:35:57.034Z,50.866737
2022-09-27T00:36:57.043Z,50.866707
2022-09-27T00:37:57.019Z,50.866718
2022-09-27T00:38:57.015Z,50.866795
2022-09-27T00:39:57.010Z,50.866692
2022-09-27T00:40:57.137Z,50.866699
2022-09-27T00:41:56.985Z,50.866802
2022-09-27T00:42:56.988Z,50.866753
2022-09-27T00:43:56.970Z,50.866650
2022-09-27T00:44:56.976Z,50.866646
2022-09-27T00:45:57.008Z,50.866703
2022-09-27T00:46:56.946Z,50.866707
2022-09-27T00:47:56.949Z,50.866722
2022-09-27T00:48:57.845Z,50.866699
2022-09-27T00:49:57.935Z,50.866756
2022-09-27T00:50:56.942Z,50.866791
2022-09-27T00:51:56.906Z,50.866749
2022-09-27T00:52:56.914Z,50.866749
2022-09-27T00:53:56.891Z,50.866791
2022-09-27T00:54:56.885Z,50.866764
2022-09-27T00:55:56.870Z,50.866714
2022-09-27T00:56:57.878Z,50.866722
2022-09-27T00:57:56.853Z,50.866760
2022-09-27T00:58:56.852Z,50.866772
2022-09-27T00:59:56.847Z,50.866741
2022-09-27T01:00:56.937Z,50.866810
2022-09-27T01:01:56.960Z,50.866722
2022-09-27T01:02:56.915Z,50.866638
2022-09-27T01:03:56.815Z,50.866711
2022-09-27T01:04:56.814Z,50.866722
2022-09-27T01:05:56.827Z,50.866741
2022-09-27T01:06:56.782Z,50.866734
2022-09-27T01:07:56.811Z,50.866722
2022-09-27T01:08:56.769Z,50.866722
2022-09-27T01:09:56.765Z,50.866711
2022-09-27T01:10:56.772Z,50.866756
2022-09-27T01:11:56.766Z,50.866718
2022-09-27T01:12:56.739Z,50.866707
2022-09-27T01:13:56.725Z,50.866718
2022-09-27T01:14:56.715Z,50.866848
2022-09-27T01:15:56.795Z,50.866753
2022-09-27T01:16:56.708Z,50.866795
2022-09-27T01:17:56.703Z,50.866703
2022-09-27T01:18:56.691Z,50.866764
2022-09-27T01:19:56.683Z,50.866753
2022-09-27T01:20:56.689Z,50.866699
2022-09-27T01:21:56.662Z,50.866745
2022-09-27T01:22:56.661Z,50.866745
2022-09-27T01:23:56.653Z,50.866776
2022-09-27T01:24:56.645Z,50.866753
2022-09-27T01:25:56.664Z,50.866772
2022-09-27T01:26:56.625Z,50.866753
2022-09-27T01:27:56.618Z,50.866806
2022-09-27T01:28:57.313Z,50.866783
2022-09-27T01:29:56.612Z,50.866768
2022-09-27T01:30:56.686Z,50.866684
2022-09-27T01:31:56.589Z,50.866714
2022-09-27T01:32:56.584Z,50.866756
2022-09-27T01:33:56.590Z,50.866734
2022-09-27T01:34:56.560Z,50.866730
2022-09-27T01:35:56.575Z,50.866848
2022-09-27T01:36:56.539Z,50.867008
2022-09-27T01:37:56.531Z,50.866989
2022-09-27T01:38:56.530Z,50.866879
2022-09-27T01:39:56.528Z,50.866776
2022-09-27T01:40:57.415Z,50.867020
2022-09-27T01:41:56.512Z,50.866978
2022-09-27T01:42:56.496Z,50.866955
2022-09-27T01:43:56.488Z,50.866894
2022-09-27T01:44:56.527Z,50.866776
2022-09-27T01:45:56.579Z,50.866768
2022-09-27T01:46:56.878Z,50.866837
2022-09-27T01:47:56.457Z,50.866646
2022-09-27T01:48:56.447Z,50.866749
2022-09-27T01:49:56.444Z,50.866875
2022-09-27T01:50:56.428Z,50.867043
2022-09-27T01:51:56.423Z,50.866993
2022-09-27T01:52:57.357Z,50.866932
2022-09-27T01:53:56.405Z,50.866768
2022-09-27T01:54:56.393Z,50.866802
2022-09-27T01:55:56.402Z,50.866882
2022-09-27T01:56:56.385Z,50.866970
2022-09-27T01:57:56.374Z,50.866951
2022-09-27T01:58:56.368Z,50.866848
2022-09-27T01:59:56.355Z,50.866837
2022-09-27T02:00:56.352Z,50.866875
2022-09-27T02:01:56.418Z,50.866798
2022-09-27T02:02:56.387Z,50.866825
2022-09-27T02:03:57.906Z,50.866764
2022-09-27T02:20:03.594Z,50.866810
2022-09-27T02:42:11.366Z,50.866550
2022-09-27T02:43:11.349Z,50.866135
2022-09-27T02:44:11.351Z,50.866055
2022-09-27T02:45:11.336Z,50.866600
2022-09-27T02:46:11.360Z,50.866615
2022-09-27T02:47:11.323Z,50.866562
2022-09-27T02:48:11.315Z,50.866604
2022-09-27T02:49:11.401Z,50.866573
2022-09-27T02:50:11.292Z,50.866600
2022-09-27T02:51:11.296Z,50.866585
2022-09-27T02:52:11.276Z,50.866592
2022-09-27T02:53:11.276Z,50.866596
2022-09-27T02:54:11.271Z,50.866570
2022-09-27T02:55:11.254Z,50.866539
2022-09-27T02:56:11.252Z,50.866604
2022-09-27T02:57:11.285Z,50.866600
2022-09-27T02:58:11.234Z,50.866573
2022-09-27T02:59:11.226Z,50.866676
2022-09-27T03:00:11.211Z,50.866596
2022-09-27T03:01:11.290Z,50.866577
2022-09-27T03:02:13.782Z,50.866604
2022-09-27T03:03:12.302Z,50.866665
2022-09-27T03:04:11.188Z,50.866619
2022-09-27T03:05:11.868Z,50.866562
2022-09-27T03:06:12.872Z,50.866791
2022-09-27T03:07:11.158Z,50.866867
2022-09-27T03:08:11.799Z,50.866753
2022-09-27T03:09:11.180Z,50.866718
2022-09-27T03:10:11.873Z,50.866596
2022-09-27T03:11:11.129Z,50.866570
2022-09-27T03:12:11.118Z,50.866562
2022-09-27T03:13:11.103Z,50.866623
2022-09-27T03:14:11.107Z,50.866718
2022-09-27T03:15:11.143Z,50.866638
2022-09-27T03:16:11.098Z,50.866611
2022-09-27T03:17:11.149Z,50.866684
2022-09-27T03:18:11.065Z,50.866661
2022-09-27T03:19:11.195Z,50.866688
2022-09-27T03:20:11.055Z,50.866661
2022-09-27T03:21:11.857Z,50.866756
2022-09-27T03:22:11.034Z,50.866562
2022-09-27T03:23:11.028Z,50.866688
2022-09-27T03:24:11.874Z,50.866718
2022-09-27T03:25:11.015Z,50.866798
2022-09-27T03:26:13.220Z,50.866730
2022-09-27T03:27:12.003Z,50.866673
2022-09-27T03:28:10.988Z,50.866623
2022-09-27T03:29:10.980Z,50.866585
2022-09-27T03:30:10.969Z,50.866661
2022-09-27T03:31:11.084Z,50.866688
2022-09-27T03:32:10.955Z,50.866718
2022-09-27T03:33:10.952Z,50.866703
2022-09-27T03:34:10.943Z,50.866722
2022-09-27T03:35:10.928Z,50.866703
2022-09-27T03:36:11.395Z,50.866623
2022-09-27T03:37:10.912Z,50.866589
2022-09-27T03:38:10.914Z,50.866592
2022-09-27T03:39:10.943Z,50.866619
2022-09-27T03:40:10.889Z,50.866619
2022-09-27T03:41:11.895Z,50.866604
2022-09-27T03:42:10.875Z,50.866611
2022-09-27T03:43:10.867Z,50.866596
2022-09-27T03:44:10.860Z,50.866692
2022-09-27T03:45:10.846Z,50.866642
2022-09-27T03:46:12.431Z,50.866619
2022-09-27T03:47:10.830Z,50.866566
2022-09-27T03:48:10.824Z,50.866550
2022-09-27T03:49:11.807Z,50.866516
2022-09-27T03:50:10.808Z,50.866589
2022-09-27T03:51:10.813Z,50.866570
2022-09-27T03:52:10.798Z,50.866535
2022-09-27T03:53:10.785Z,50.866524
2022-09-27T03:54:10.779Z,50.866596
2022-09-27T03:55:10.772Z,50.866718
2022-09-27T03:56:12.300Z,50.866734
2022-09-27T03:57:10.749Z,50.866642
2022-09-27T03:58:10.748Z,50.866642
2022-09-27T03:59:10.842Z,50.866631
2022-09-27T04:00:11.383Z,50.866669
2022-09-27T04:01:10.801Z,50.866631
2022-09-27T04:02:10.774Z,50.866657
2022-09-27T04:03:10.702Z,50.866680
2022-09-27T04:04:11.568Z,50.866566
2022-09-27T04:05:10.699Z,50.866589
2022-09-27T04:06:10.683Z,50.866642
2022-09-27T04:07:10.673Z,50.866661
2022-09-27T04:08:11.392Z,50.866642
2022-09-27T04:09:10.727Z,50.866669
2022-09-27T04:10:11.312Z,50.866611
2022-09-27T04:11:10.636Z,50.866516
2022-09-27T04:12:10.668Z,50.866512
2022-09-27T04:13:10.618Z,50.866425
2022-09-27T04:14:10.620Z,50.866444
2022-09-27T04:15:10.617Z,50.866402
2022-09-27T04:16:10.599Z,50.866524
2022-09-27T04:17:10.623Z,50.866508
2022-09-27T04:18:10.582Z,50.866577
2022-09-27T04:19:10.584Z,50.866600
2022-09-27T04:20:10.568Z,50.866566
2022-09-27T04:21:10.564Z,50.866756
2022-09-27T04:22:10.551Z,50.867008
2022-09-27T04:23:10.542Z,50.866970
2022-09-27T04:24:10.532Z,50.866905
2022-09-27T04:25:10.534Z,50.866920
2022-09-27T04:26:10.524Z,50.866890
2022-09-27T04:27:10.509Z,50.866905
2022-09-27T04:28:10.513Z,50.866943
2022-09-27T04:29:10.546Z,50.866993
2022-09-27T04:30:10.496Z,50.867004
2022-09-27T04:31:10.577Z,50.866940
2022-09-27T04:32:10.482Z,50.866871
2022-09-27T04:33:10.468Z,50.866806
2022-09-27T04:34:10.459Z,50.866840
2022-09-27T04:35:10.470Z,50.866764
2022-09-27T04:36:11.442Z,50.866875
2022-09-27T04:37:10.445Z,50.866932
2022-09-27T04:38:10.429Z,50.866997
2022-09-27T04:39:11.452Z,50.867073
2022-09-27T04:40:11.322Z,50.867027
2022-09-27T04:41:10.416Z,50.866959
2022-09-27T04:42:10.395Z,50.866982
2022-09-27T04:43:10.889Z,50.866875
2022-09-27T04:44:10.390Z,50.867123
2022-09-27T04:45:10.377Z,50.866974
2022-09-27T04:46:10.415Z,50.866951
2022-09-27T04:47:12.318Z,50.867008
2022-09-27T04:48:10.352Z,50.866795
2022-09-27T04:49:10.397Z,50.866737
2022-09-27T04:50:10.339Z,50.866810
2022-09-27T04:51:11.325Z,50.866867
2022-09-27T04:52:10.323Z,50.866947
2022-09-27T04:53:10.314Z,50.867249
2022-09-27T04:54:10.897Z,50.867157
2022-09-27T04:55:10.305Z,50.867142
2022-09-27T04:56:10.900Z,50.867020
2022-09-27T04:57:10.279Z,50.866905
2022-09-27T04:58:10.287Z,50.866898
2022-09-27T04:59:10.950Z,50.867012
2022-09-27T05:00:10.268Z,50.867035
2022-09-27T05:01:10.384Z,50.867023
2022-09-27T05:02:10.272Z,50.866974
2022-09-27T05:03:10.233Z,50.866764
2022-09-27T05:04:10.235Z,50.866791
2022-09-27T05:05:10.221Z,50.866768
2022-09-27T05:06:10.211Z,50.866798
2022-09-27T05:07:10.903Z,50.866776
2022-09-27T05:08:10.194Z,50.866699
2022-09-27T05:09:10.875Z,50.866718
2022-09-27T05:10:10.177Z,50.866737
2022-09-27T05:11:10.178Z,50.866726
2022-09-27T05:12:10.161Z,50.866718
2022-09-27T05:13:10.158Z,50.866722
2022-09-27T05:14:10.155Z,50.866760
2022-09-27T05:15:11.141Z,50.866756
2022-09-27T05:16:10.341Z,50.866718
2022-09-27T05:17:10.208Z,50.866718
2022-09-27T05:18:10.154Z,50.866753
2022-09-27T05:19:10.109Z,50.866741
2022-09-27T05:20:10.905Z,50.866726
2022-09-27T05:21:10.098Z,50.866692
2022-09-27T05:22:10.083Z,50.866772
2022-09-27T05:23:10.069Z,50.866756
2022-09-27T05:24:10.070Z,50.866737
2022-09-27T05:25:10.061Z,50.866783
2022-09-27T05:26:10.053Z,50.866783
2022-09-27T05:27:10.049Z,50.866749
2022-09-27T05:28:10.032Z,50.866749
2022-09-27T05:29:10.065Z,50.866730
2022-09-27T05:30:10.031Z,50.866756
2022-09-27T05:31:10.109Z,50.866722
2022-09-27T05:32:10.845Z,50.866695
2022-09-27T05:33:11.917Z,50.866673
2022-09-27T05:34:09.983Z,50.866673
2022-09-27T05:35:09.978Z,50.866673
2022-09-27T05:36:09.976Z,50.866608
2022-09-27T05:37:09.964Z,50.866570
2022-09-27T05:38:10.830Z,50.866512
2022-09-27T05:39:09.950Z,50.866447
2022-09-27T05:40:29.278Z,50.866478
2022-09-27T05:41:12.004Z,50.866405
2022-09-27T05:42:09.921Z,50.866344
2022-09-27T05:43:09.917Z,50.866314
2022-09-27T05:44:09.919Z,50.866379
2022-09-27T05:45:09.916Z,50.866543
2022-09-27T05:46:10.923Z,50.866592
2022-09-27T05:47:11.413Z,50.866711
2022-09-27T05:48:09.876Z,50.866684
2022-09-27T05:49:09.870Z,50.866634
2022-09-27T05:50:09.866Z,50.866787
2022-09-27T05:51:10.839Z,50.866745
2022-09-27T05:52:15.005Z,50.866833
2022-09-27T05:53:11.840Z,50.866791
2022-09-27T05:54:10.456Z,50.866840
2022-09-27T05:55:10.412Z,50.866798
2022-09-27T05:56:09.820Z,50.866741
2022-09-27T05:57:09.810Z,50.866779
2022-09-27T06:01:20.304Z,50.866772
2022-09-27T06:02:20.202Z,50.866722
2022-09-27T06:03:20.164Z,50.866711
2022-09-27T06:04:20.167Z,50.866753
2022-09-27T06:05:20.148Z,50.866714
2022-09-27T06:06:20.183Z,50.866699
2022-09-27T06:07:20.132Z,50.866711
2022-09-27T06:08:20.642Z,50.866684
2022-09-27T06:09:20.645Z,50.866734
2022-09-27T06:10:20.129Z,50.866634
2022-09-27T06:11:20.127Z,50.866692
2022-09-27T06:12:20.112Z,50.866718
2022-09-27T06:13:20.081Z,50.866730
2022-09-27T06:14:20.082Z,50.866753
2022-09-27T06:15:20.069Z,50.866753
2022-09-27T06:16:23.679Z,50.866753
2022-09-27T06:17:22.661Z,50.866730
2022-09-27T06:18:20.050Z,50.866734
2022-09-27T06:19:20.067Z,50.866730
2022-09-27T06:20:20.022Z,50.866745
2022-09-27T06:21:20.019Z,50.866745
2022-09-27T06:22:20.643Z,50.866753
2022-09-27T06:23:20.012Z,50.866764
2022-09-27T06:24:21.011Z,50.866768
2022-09-27T06:25:20.008Z,50.866730
2022-09-27T06:26:20.038Z,50.866779
2022-09-27T06:27:19.972Z,50.866810
2022-09-27T06:28:22.724Z,50.866760
2022-09-27T06:29:19.953Z,50.866772
2022-09-27T06:30:21.718Z,50.866741
2022-09-27T06:31:19.967Z,50.866718
2022-09-27T06:32:19.939Z,50.866760
2022-09-27T06:33:20.645Z,50.866779
2022-09-27T06:34:19.926Z,50.866795
2022-09-27T06:35:19.910Z,50.866764
2022-09-27T06:36:20.253Z,50.866737
2022-09-27T06:37:19.895Z,50.866756
2022-09-27T06:38:19.927Z,50.866756
2022-09-27T06:39:19.884Z,50.866768
2022-09-27T06:40:19.899Z,50.866802
2022-09-27T06:41:19.865Z,50.866749
2022-09-27T06:42:19.830Z,50.866768
2022-09-27T06:43:19.845Z,50.866817
2022-09-27T06:44:19.839Z,50.866768
2022-09-27T06:45:21.755Z,50.866756
2022-09-27T06:46:19.902Z,50.866745
2022-09-27T06:47:20.607Z,50.866768
2022-09-27T06:48:19.797Z,50.866764
2022-09-27T06:49:19.799Z,50.866806
2022-09-27T06:50:19.792Z,50.866772
2022-09-27T06:51:21.220Z,50.866795
2022-09-27T06:52:21.733Z,50.866798
2022-09-27T06:53:20.734Z,50.866768
2022-09-27T06:54:19.890Z,50.866730
2022-09-27T06:55:20.653Z,50.866737
2022-09-27T06:56:19.765Z,50.866783
2022-09-27T06:57:19.727Z,50.866768
2022-09-27T06:58:19.712Z,50.866760
2022-09-27T06:59:19.702Z,50.866760
2022-09-27T07:00:23.154Z,50.866753
2022-09-27T07:01:20.379Z,50.866764
2022-09-27T07:02:19.713Z,50.866749
2022-09-27T07:03:19.674Z,50.866764
2022-09-27T07:04:20.248Z,50.866756
2022-09-27T07:05:19.813Z,50.866764
2022-09-27T07:06:19.661Z,50.866718
2022-09-27T07:07:19.645Z,50.866783
2022-09-27T07:08:19.634Z,50.866753
2022-09-27T07:09:19.629Z,50.866768
2022-09-27T07:10:20.252Z,50.866749
2022-09-27T07:11:19.614Z,50.866737
2022-09-27T07:12:19.636Z,50.866772
2022-09-27T07:13:19.725Z,50.866802
2022-09-27T07:14:19.705Z,50.866741
2022-09-27T07:15:19.711Z,50.866772
2022-09-27T07:16:52.281Z,50.866810
2022-09-27T07:17:19.604Z,50.866783
2022-09-27T07:18:19.552Z,50.866734
2022-09-27T07:19:19.554Z,50.866753
2022-09-27T07:20:20.178Z,50.866756
2022-09-27T07:21:19.541Z,50.866737
2022-09-27T07:22:19.532Z,50.866722
2022-09-27T07:23:19.519Z,50.866730
2022-09-27T07:24:19.500Z,50.866779
2022-09-27T07:25:19.499Z,50.866871
2022-09-27T07:26:19.487Z,50.866871
2022-09-27T07:27:19.497Z,50.866821
2022-09-27T07:28:22.002Z,50.866825
2022-09-27T07:29:20.468Z,50.866882
2022-09-27T07:30:19.466Z,50.866810
2022-09-27T07:31:19.458Z,50.866657
2022-09-27T07:32:19.442Z,50.866722
2022-09-27T07:33:19.443Z,50.866802
2022-09-27T07:34:19.443Z,50.866798
2022-09-27T07:35:21.269Z,50.866779
2022-09-27T07:36:20.170Z,50.866947
2022-09-27T07:37:19.437Z,50.866707
2022-09-27T07:38:19.411Z,50.866608
2022-09-27T07:39:19.398Z,50.866791
2022-09-27T07:40:19.451Z,50.866772
2022-09-27T07:41:19.390Z,50.866821
2022-09-27T07:42:20.280Z,50.866669
2022-09-27T07:43:19.380Z,50.866718
2022-09-27T07:44:19.350Z,50.866756
2022-09-27T07:45:19.347Z,50.866924
2022-09-27T07:46:19.357Z,50.866844
2022-09-27T07:47:19.325Z,50.866833
2022-09-27T07:48:19.348Z,50.866844
2022-09-27T07:49:19.379Z,50.866779
2022-09-27T07:50:19.294Z,50.866577
2022-09-27T07:51:19.293Z,50.866776
2022-09-27T07:52:19.288Z,50.866833
2022-09-27T07:53:19.279Z,50.866913
2022-09-27T07:54:19.272Z,50.866947
2022-09-27T07:55:19.260Z,50.866917
2022-09-27T07:56:19.239Z,50.866833
2022-09-27T07:57:20.247Z,50.866829
2022-09-27T07:58:19.259Z,50.866711
2022-09-27T07:59:19.228Z,50.866688
2022-09-27T08:00:19.225Z,50.866699
2022-09-27T08:01:19.302Z,50.866749
2022-09-27T21:32:05.575Z,50.866695
2022-09-27T21:33:06.314Z,50.866669
2022-09-27T21:34:05.539Z,50.866745
2022-09-27T21:35:05.541Z,50.866783
2022-09-27T21:36:05.517Z,50.866634
2022-09-27T21:37:05.506Z,50.866802
2022-09-27T21:38:05.511Z,50.866669
2022-09-27T21:39:05.494Z,50.866722
2022-09-27T21:40:07.384Z,50.866688
2022-09-27T21:41:06.529Z,50.866726
2022-09-27T21:42:07.314Z,50.866760
2022-09-27T21:43:05.459Z,50.866726
2022-09-27T21:44:06.347Z,50.866741
2022-09-27T21:45:05.464Z,50.866741
2022-09-27T21:46:05.428Z,50.866737
2022-09-27T21:47:05.512Z,50.866745
2022-09-27T21:48:05.411Z,50.866753
2022-09-27T21:49:05.421Z,50.866726
2022-09-27T21:50:05.402Z,50.866726
2022-09-27T21:51:05.388Z,50.866741
2022-09-27T21:52:05.387Z,50.866722
2022-09-27T21:53:05.374Z,50.866741
2022-09-27T21:54:05.384Z,50.866760
2022-09-27T21:55:05.364Z,50.866768
2022-09-27T21:56:05.348Z,50.866764
2022-09-27T21:57:05.349Z,50.866756
2022-09-27T21:58:05.331Z,50.866718
2022-09-27T21:59:05.343Z,50.866699
2022-09-27T22:00:05.318Z,50.866730
2022-09-27T22:01:05.341Z,50.866776
2022-09-27T22:02:05.354Z,50.866798
2022-09-27T22:03:05.358Z,50.866722
2022-09-27T22:04:05.305Z,50.866741
2022-09-27T22:05:05.278Z,50.866745
2022-09-27T22:06:05.261Z,50.866768
2022-09-27T22:07:05.283Z,50.866787
2022-09-27T22:08:05.247Z,50.866795
2022-09-27T22:09:05.248Z,50.866764
2022-09-27T22:10:05.237Z,50.866802
2022-09-27T22:11:05.260Z,50.866798
2022-09-27T22:12:05.223Z,50.866795
2022-09-27T22:13:05.232Z,50.866825
2022-09-27T22:14:05.206Z,50.866837
2022-09-27T22:15:05.215Z,50.866825
2022-09-27T22:16:05.883Z,50.866810
2022-09-27T22:17:08.810Z,50.866859
2022-09-27T22:18:06.900Z,50.866825
2022-09-27T22:19:05.172Z,50.866787
2022-09-27T22:20:05.151Z,50.866756
2022-09-27T22:21:05.150Z,50.866753
2022-09-27T22:22:05.142Z,50.866741
2022-09-27T22:23:05.785Z,50.866852
2022-09-27T22:24:07.827Z,50.866875
2022-09-27T22:25:06.124Z,50.866779
2022-09-27T22:26:05.115Z,50.866825
2022-09-27T22:27:05.094Z,50.866817
2022-09-27T22:28:05.822Z,50.866840
2022-09-27T22:29:05.085Z,50.866802
2022-09-27T22:30:05.075Z,50.866783
2022-09-27T22:31:05.125Z,50.866795
2022-09-27T22:32:05.924Z,50.866787
2022-09-27T22:33:06.055Z,50.866817
2022-09-27T22:34:05.039Z,50.866802
2022-09-27T22:35:05.038Z,50.866764
2022-09-27T22:36:05.023Z,50.866840
2022-09-27T22:37:05.017Z,50.866798
2022-09-27T22:38:05.835Z,50.866776
2022-09-27T22:39:05.024Z,50.866821
2022-09-27T22:40:05.001Z,50.866665
2022-09-27T22:41:04.990Z,50.866753
2022-09-27T22:42:04.974Z,50.866894
2022-09-27T22:43:04.988Z,50.866951
2022-09-27T22:44:04.956Z,50.866875
2022-09-27T22:45:04.964Z,50.866776
2022-09-27T22:46:04.937Z,50.866745
2022-09-27T22:47:04.969Z,50.866718
2022-09-27T22:48:04.937Z,50.866707
2022-09-27T22:49:04.926Z,50.866714
2022-09-27T22:50:04.919Z,50.866787
2022-09-27T22:51:04.896Z,50.866890
2022-09-27T22:52:04.893Z,50.866917
2022-09-27T22:53:04.899Z,50.866749
2022-09-27T22:54:04.880Z,50.866631
2022-09-27T22:55:04.867Z,50.866703
2022-09-27T22:56:04.991Z,50.866695
2022-09-27T22:57:04.860Z,50.866726
2022-09-27T22:58:04.851Z,50.866745
2022-09-27T22:59:04.847Z,50.866734
2022-09-27T23:00:04.826Z,50.866703
2022-09-27T23:01:04.831Z,50.866730
2022-09-27T23:02:04.828Z,50.866642
2022-09-27T23:03:05.334Z,50.866768
2022-09-27T23:04:04.849Z,50.866707
2022-09-27T23:05:04.801Z,50.866932
2022-09-27T23:06:08.348Z,50.866959
2022-09-27T23:07:04.791Z,50.866848
2022-09-27T23:08:04.775Z,50.867023
2022-09-27T23:09:04.760Z,50.867035
2022-09-27T23:10:04.760Z,50.866947
2022-09-27T23:11:04.753Z,50.866825
2022-09-27T23:12:04.738Z,50.866852
2022-09-27T23:13:04.754Z,50.866833
2022-09-27T23:14:04.725Z,50.866817
2022-09-27T23:15:04.722Z,50.866848
2022-09-27T23:16:04.732Z,50.866947
2022-09-27T23:17:05.413Z,50.867012
2022-09-27T23:18:04.687Z,50.866882
2022-09-27T23:19:04.698Z,50.866810
2022-09-27T23:20:04.675Z,50.866772
2022-09-27T23:21:04.678Z,50.866760
2022-09-27T23:22:04.661Z,50.866791
2022-09-27T23:23:04.678Z,50.866776
2022-09-27T23:24:04.648Z,50.866783
2022-09-27T23:25:04.632Z,50.866779
2022-09-27T23:26:04.632Z,50.866798
2022-09-27T23:27:04.628Z,50.866814
2022-09-27T23:28:04.617Z,50.866791
2022-09-27T23:29:04.602Z,50.866756
2022-09-27T23:30:05.298Z,50.866772
2022-09-27T23:31:04.742Z,50.866802
2022-09-27T23:32:04.583Z,50.866859
2022-09-27T23:33:04.575Z,50.866772
2022-09-27T23:34:04.570Z,50.866741
2022-09-27T23:35:04.593Z,50.866798
2022-09-27T23:36:04.548Z,50.866817
2022-09-27T23:37:04.542Z,50.866920
2022-09-27T23:38:04.522Z,50.866837
2022-09-27T23:39:04.521Z,50.866833
2022-09-27T23:40:04.559Z,50.866814
2022-09-27T23:41:04.516Z,50.866791
2022-09-27T23:42:04.505Z,50.866840
2022-09-27T23:43:04.502Z,50.866856
2022-09-27T23:44:04.491Z,50.866829
2022-09-27T23:45:04.478Z,50.866875
2022-09-27T23:46:04.453Z,50.866920
2022-09-27T23:47:05.544Z,50.866814
2022-09-27T23:48:04.450Z,50.866837
2022-09-27T23:49:04.448Z,50.866795
2022-09-27T23:50:04.434Z,50.866848
2022-09-27T23:51:04.438Z,50.866821
2022-09-27T23:52:04.419Z,50.866837
2022-09-27T23:53:04.415Z,50.866844
2022-09-27T23:54:05.405Z,50.866909
2022-09-27T23:55:04.396Z,50.866886
2022-09-27T23:56:04.395Z,50.867020
2022-09-27T23:57:04.403Z,50.866966
2022-09-27T23:58:05.344Z,50.866962
2022-09-27T23:59:04.365Z,50.867016
